sensor_id;sensor_type;location;lat;lon;timestamp;temperature;humidity
12233;DHT22;6179;51.748;8.728;2024-01-16T00:04:55;1.00;98.30
12233;DHT22;6179;51.748;8.728;2024-01-16T00:10:56;1.00;98.30
12233;DHT22;6179;51.748;8.728;2024-01-16T00:16:56;1.00;98.30
12233;DHT22;6179;51.748;8.728;2024-01-16T00:22:57;1.00;98.30
12233;DHT22;6179;51.748;8.728;2024-01-16T00:28:58;0.90;98.30
12233;DHT22;6179;51.748;8.728;2024-01-16T00:34:58;0.90;98.30
12233;DHT22;6179;51.748;8.728;2024-01-16T00:40:59;0.80;98.30
12233;DHT22;6179;51.748;8.728;2024-01-16T00:47:00;0.90;98.30
12233;DHT22;6179;51.748;8.728;2024-01-16T00:53:02;0.70;98.30
12233;DHT22;6179;51.748;8.728;2024-01-16T00:59:03;0.80;98.30
12233;DHT22;6179;51.748;8.728;2024-01-16T01:05:04;1.10;98.30
12233;DHT22;6179;51.748;8.728;2024-01-16T01:11:05;1.10;98.30
12233;DHT22;6179;51.748;8.728;2024-01-16T01:17:05;0.90;98.30
12233;DHT22;6179;51.748;8.728;2024-01-16T01:23:07;0.70;98.30
12233;DHT22;6179;51.748;8.728;2024-01-16T01:29:08;0.80;98.30
12233;DHT22;6179;51.748;8.728;2024-01-16T01:35:08;0.80;98.30
12233;DHT22;6179;51.748;8.728;2024-01-16T01:41:09;0.90;98.30
12233;DHT22;6179;51.748;8.728;2024-01-16T01:47:12;0.70;98.30
12233;DHT22;6179;51.748;8.728;2024-01-16T01:53:13;0.90;98.30
12233;DHT22;6179;51.748;8.728;2024-01-16T01:59:14;0.90;98.30
12233;DHT22;6179;51.748;8.728;2024-01-16T02:05:19;0.90;98.30
12233;DHT22;6179;51.748;8.728;2024-01-16T02:11:20;0.90;98.30
12233;DHT22;6179;51.748;8.728;2024-01-16T02:17:21;0.90;98.30
12233;DHT22;6179;51.748;8.728;2024-01-16T02:23:26;0.90;98.30
12233;DHT22;6179;51.748;8.728;2024-01-16T02:29:28;0.90;98.30
12233;DHT22;6179;51.748;8.728;2024-01-16T02:35:28;1.10;98.30
12233;DHT22;6179;51.748;8.728;2024-01-16T02:41:29;0.90;98.30
12233;DHT22;6179;51.748;8.728;2024-01-16T02:47:30;0.90;98.30
12233;DHT22;6179;51.748;8.728;2024-01-16T02:53:31;0.90;98.30
12233;DHT22;6179;51.748;8.728;2024-01-16T02:59:32;0.90;98.30
12233;DHT22;6179;51.748;8.728;2024-01-16T03:05:33;0.90;98.30
12233;DHT22;6179;51.748;8.728;2024-01-16T03:11:34;0.80;98.30
12233;DHT22;6179;51.748;8.728;2024-01-16T03:17:35;0.90;98.30
12233;DHT22;6179;51.748;8.728;2024-01-16T03:23:36;1.10;98.30
12233;DHT22;6179;51.748;8.728;2024-01-16T03:29:36;1.00;98.30
12233;DHT22;6179;51.748;8.728;2024-01-16T03:35:37;1.10;98.30
12233;DHT22;6179;51.748;8.728;2024-01-16T03:41:38;1.10;98.30
12233;DHT22;6179;51.748;8.728;2024-01-16T03:47:39;0.80;98.30
12233;DHT22;6179;51.748;8.728;2024-01-16T03:53:39;0.70;98.30
12233;DHT22;6179;51.748;8.728;2024-01-16T03:59:40;1.00;98.30
12233;DHT22;6179;51.748;8.728;2024-01-16T04:05:41;1.20;98.30
12233;DHT22;6179;51.748;8.728;2024-01-16T04:11:42;0.90;98.30
12233;DHT22;6179;51.748;8.728;2024-01-16T04:17:43;0.80;98.30
12233;DHT22;6179;51.748;8.728;2024-01-16T04:23:43;0.70;98.30
12233;DHT22;6179;51.748;8.728;2024-01-16T04:29:44;0.70;98.30
12233;DHT22;6179;51.748;8.728;2024-01-16T04:35:45;0.70;98.30
12233;DHT22;6179;51.748;8.728;2024-01-16T04:41:46;0.90;98.30
12233;DHT22;6179;51.748;8.728;2024-01-16T04:47:47;0.90;98.30
12233;DHT22;6179;51.748;8.728;2024-01-16T04:53:47;0.90;98.30
12233;DHT22;6179;51.748;8.728;2024-01-16T04:59:48;0.70;98.30
12233;DHT22;6179;51.748;8.728;2024-01-16T05:05:49;0.80;98.30
12233;DHT22;6179;51.748;8.728;2024-01-16T05:11:50;0.80;98.30
12233;DHT22;6179;51.748;8.728;2024-01-16T05:17:51;1.10;98.30
12233;DHT22;6179;51.748;8.728;2024-01-16T05:23:51;0.90;98.30
12233;DHT22;6179;51.748;8.728;2024-01-16T05:29:52;1.00;98.30
12233;DHT22;6179;51.748;8.728;2024-01-16T05:35:53;0.80;98.30
12233;DHT22;6179;51.748;8.728;2024-01-16T05:41:54;0.90;98.30
12233;DHT22;6179;51.748;8.728;2024-01-16T05:47:54;0.60;98.30
12233;DHT22;6179;51.748;8.728;2024-01-16T05:53:56;0.80;98.30
12233;DHT22;6179;51.748;8.728;2024-01-16T05:59:57;0.80;98.30
12233;DHT22;6179;51.748;8.728;2024-01-16T06:05:58;0.80;98.30
12233;DHT22;6179;51.748;8.728;2024-01-16T06:11:59;0.90;98.30
12233;DHT22;6179;51.748;8.728;2024-01-16T06:18:00;1.30;98.30
12233;DHT22;6179;51.748;8.728;2024-01-16T06:24:01;0.90;98.30
12233;DHT22;6179;51.748;8.728;2024-01-16T06:30:01;0.90;98.30
12233;DHT22;6179;51.748;8.728;2024-01-16T06:36:04;1.00;98.30
12233;DHT22;6179;51.748;8.728;2024-01-16T06:42:05;1.10;98.30
12233;DHT22;6179;51.748;8.728;2024-01-16T06:48:06;1.00;98.30
12233;DHT22;6179;51.748;8.728;2024-01-16T06:54:07;1.00;98.30
12233;DHT22;6179;51.748;8.728;2024-01-16T07:00:08;1.20;98.30
12233;DHT22;6179;51.748;8.728;2024-01-16T07:06:10;1.10;98.30
12233;DHT22;6179;51.748;8.728;2024-01-16T07:12:11;0.90;98.30
12233;DHT22;6179;51.748;8.728;2024-01-16T07:18:11;1.20;98.30
12233;DHT22;6179;51.748;8.728;2024-01-16T07:24:12;1.00;98.30
12233;DHT22;6179;51.748;8.728;2024-01-16T07:30:14;1.10;98.30
12233;DHT22;6179;51.748;8.728;2024-01-16T07:36:15;1.10;98.30
12233;DHT22;6179;51.748;8.728;2024-01-16T07:42:16;1.50;98.30
12233;DHT22;6179;51.748;8.728;2024-01-16T07:48:17;1.30;98.30
12233;DHT22;6179;51.748;8.728;2024-01-16T07:54:18;1.20;98.30
12233;DHT22;6179;51.748;8.728;2024-01-16T08:00:19;1.20;98.30
12233;DHT22;6179;51.748;8.728;2024-01-16T08:06:20;1.40;98.30
12233;DHT22;6179;51.748;8.728;2024-01-16T08:12:21;1.50;98.30
12233;DHT22;6179;51.748;8.728;2024-01-16T08:18:22;1.50;98.30
12233;DHT22;6179;51.748;8.728;2024-01-16T08:24:22;1.60;98.30
12233;DHT22;6179;51.748;8.728;2024-01-16T08:30:23;1.40;98.30
12233;DHT22;6179;51.748;8.728;2024-01-16T08:36:24;1.20;98.30
12233;DHT22;6179;51.748;8.728;2024-01-16T08:42:25;1.60;98.30
12233;DHT22;6179;51.748;8.728;2024-01-16T08:48:26;1.50;98.30
12233;DHT22;6179;51.748;8.728;2024-01-16T08:54:26;1.40;98.30
12233;DHT22;6179;51.748;8.728;2024-01-16T09:00:27;1.50;98.30
12233;DHT22;6179;51.748;8.728;2024-01-16T09:06:28;1.30;98.30
12233;DHT22;6179;51.748;8.728;2024-01-16T09:12:29;1.30;98.30
12233;DHT22;6179;51.748;8.728;2024-01-16T09:18:30;1.40;98.30
12233;DHT22;6179;51.748;8.728;2024-01-16T09:24:31;1.80;98.30
12233;DHT22;6179;51.748;8.728;2024-01-16T09:30:32;1.90;98.30
12233;DHT22;6179;51.748;8.728;2024-01-16T09:36:33;1.70;98.30
12233;DHT22;6179;51.748;8.728;2024-01-16T09:42:36;1.80;98.30
12233;DHT22;6179;51.748;8.728;2024-01-16T09:48:37;1.70;98.30
12233;DHT22;6179;51.748;8.728;2024-01-16T09:54:37;1.70;98.30
12233;DHT22;6179;51.748;8.728;2024-01-16T10:00:38;1.70;98.30
12233;DHT22;6179;51.748;8.728;2024-01-16T10:06:41;1.80;98.30
12233;DHT22;6179;51.748;8.728;2024-01-16T10:12:47;1.80;98.30
12233;DHT22;6179;51.748;8.728;2024-01-16T10:18:50;1.50;98.30
12233;DHT22;6179;51.748;8.728;2024-01-16T10:31:10;1.50;98.30
12233;DHT22;6179;51.748;8.728;2024-01-16T10:37:12;1.40;98.30
12233;DHT22;6179;51.748;8.728;2024-01-16T10:43:17;1.40;98.30
12233;DHT22;6179;51.748;8.728;2024-01-16T10:49:18;1.50;98.30
12233;DHT22;6179;51.748;8.728;2024-01-16T10:55:23;1.40;98.30
12233;DHT22;6179;51.748;8.728;2024-01-16T11:01:25;1.50;98.30
12233;DHT22;6179;51.748;8.728;2024-01-16T11:07:28;1.60;98.30
12233;DHT22;6179;51.748;8.728;2024-01-16T11:13:32;1.80;98.30
12233;DHT22;6179;51.748;8.728;2024-01-16T11:19:37;1.60;98.30
12233;DHT22;6179;51.748;8.728;2024-01-16T11:25:37;1.60;98.30
12233;DHT22;6179;51.748;8.728;2024-01-16T11:31:38;1.60;98.30
12233;DHT22;6179;51.748;8.728;2024-01-16T11:37:45;1.90;98.30
12233;DHT22;6179;51.748;8.728;2024-01-16T11:43:46;1.80;98.30
12233;DHT22;6179;51.748;8.728;2024-01-16T11:49:49;2.10;98.30
12233;DHT22;6179;51.748;8.728;2024-01-16T12:01:58;1.70;98.30
12233;DHT22;6179;51.748;8.728;2024-01-16T12:08:00;1.60;98.30
12233;DHT22;6179;51.748;8.728;2024-01-16T12:14:04;1.90;97.90
12233;DHT22;6179;51.748;8.728;2024-01-16T12:20:16;1.90;98.00
12233;DHT22;6179;51.748;8.728;2024-01-16T12:26:20;2.10;97.00
12233;DHT22;6179;51.748;8.728;2024-01-16T12:32:22;2.00;96.70
12233;DHT22;6179;51.748;8.728;2024-01-16T12:38:22;1.80;96.90
12233;DHT22;6179;51.748;8.728;2024-01-16T12:44:30;2.20;94.10
12233;DHT22;6179;51.748;8.728;2024-01-16T12:50:32;1.80;96.50
12233;DHT22;6179;51.748;8.728;2024-01-16T12:56:33;1.90;95.50
12233;DHT22;6179;51.748;8.728;2024-01-16T13:02:33;2.00;96.80
12233;DHT22;6179;51.748;8.728;2024-01-16T13:08:36;1.90;95.30
12233;DHT22;6179;51.748;8.728;2024-01-16T13:14:37;2.00;95.40
12233;DHT22;6179;51.748;8.728;2024-01-16T13:20:38;1.90;95.90
12233;DHT22;6179;51.748;8.728;2024-01-16T13:26:39;2.00;95.50
12233;DHT22;6179;51.748;8.728;2024-01-16T13:32:40;2.20;95.80
12233;DHT22;6179;51.748;8.728;2024-01-16T13:38:41;1.90;95.70
12233;DHT22;6179;51.748;8.728;2024-01-16T13:44:42;1.90;97.40
12233;DHT22;6179;51.748;8.728;2024-01-16T13:50:43;2.10;95.80
12233;DHT22;6179;51.748;8.728;2024-01-16T13:56:45;2.00;95.40
12233;DHT22;6179;51.748;8.728;2024-01-16T14:02:48;2.00;96.00
12233;DHT22;6179;51.748;8.728;2024-01-16T14:08:49;1.90;95.60
12233;DHT22;6179;51.748;8.728;2024-01-16T14:14:50;2.10;96.40
12233;DHT22;6179;51.748;8.728;2024-01-16T14:20:51;1.80;96.20
12233;DHT22;6179;51.748;8.728;2024-01-16T14:26:52;1.90;95.60
12233;DHT22;6179;51.748;8.728;2024-01-16T14:32:53;1.80;96.50
12233;DHT22;6179;51.748;8.728;2024-01-16T14:38:53;1.80;95.20
12233;DHT22;6179;51.748;8.728;2024-01-16T14:44:54;1.60;96.50
12233;DHT22;6179;51.748;8.728;2024-01-16T14:50:55;1.60;97.60
12233;DHT22;6179;51.748;8.728;2024-01-16T14:56:56;1.40;96.70
12233;DHT22;6179;51.748;8.728;2024-01-16T15:02:57;1.50;96.60
12233;DHT22;6179;51.748;8.728;2024-01-16T15:08:58;1.60;95.30
12233;DHT22;6179;51.748;8.728;2024-01-16T15:14:59;1.60;94.60
12233;DHT22;6179;51.748;8.728;2024-01-16T15:21:00;1.50;94.80
12233;DHT22;6179;51.748;8.728;2024-01-16T15:27:00;1.20;95.60
12233;DHT22;6179;51.748;8.728;2024-01-16T15:33:02;1.40;96.20
12233;DHT22;6179;51.748;8.728;2024-01-16T15:39:05;1.20;96.00
12233;DHT22;6179;51.748;8.728;2024-01-16T15:45:08;1.00;96.50
12233;DHT22;6179;51.748;8.728;2024-01-16T15:51:12;0.70;96.80
12233;DHT22;6179;51.748;8.728;2024-01-16T15:57:13;0.60;97.00
12233;DHT22;6179;51.748;8.728;2024-01-16T16:03:15;0.80;95.90
12233;DHT22;6179;51.748;8.728;2024-01-16T16:09:15;0.60;96.70
12233;DHT22;6179;51.748;8.728;2024-01-16T16:15:17;0.40;97.60
12233;DHT22;6179;51.748;8.728;2024-01-16T16:21:17;0.20;97.50
12233;DHT22;6179;51.748;8.728;2024-01-16T16:33:24;0.10;98.10
12233;DHT22;6179;51.748;8.728;2024-01-16T16:39:25;-0.10;98.30
12233;DHT22;6179;51.748;8.728;2024-01-16T16:45:26;-0.30;98.30
12233;DHT22;6179;51.748;8.728;2024-01-16T16:51:27;-0.30;98.30
12233;DHT22;6179;51.748;8.728;2024-01-16T16:57:28;-0.50;98.30
12233;DHT22;6179;51.748;8.728;2024-01-16T17:03:29;-0.50;98.30
12233;DHT22;6179;51.748;8.728;2024-01-16T17:09:32;-0.30;97.50
12233;DHT22;6179;51.748;8.728;2024-01-16T17:15:32;-0.50;98.30
12233;DHT22;6179;51.748;8.728;2024-01-16T17:21:33;-0.60;98.30
12233;DHT22;6179;51.748;8.728;2024-01-16T17:27:34;-0.60;98.30
12233;DHT22;6179;51.748;8.728;2024-01-16T17:33:35;-0.80;98.30
12233;DHT22;6179;51.748;8.728;2024-01-16T17:39:35;-0.80;98.30
12233;DHT22;6179;51.748;8.728;2024-01-16T17:45:36;-0.80;98.30
12233;DHT22;6179;51.748;8.728;2024-01-16T17:51:38;-0.80;98.30
12233;DHT22;6179;51.748;8.728;2024-01-16T17:57:39;-0.80;98.30
12233;DHT22;6179;51.748;8.728;2024-01-16T18:03:42;-0.80;98.30
12233;DHT22;6179;51.748;8.728;2024-01-16T18:09:47;-0.80;98.30
12233;DHT22;6179;51.748;8.728;2024-01-16T18:15:47;-0.90;98.30
12233;DHT22;6179;51.748;8.728;2024-01-16T18:21:48;-0.90;98.30
12233;DHT22;6179;51.748;8.728;2024-01-16T18:27:51;-1.00;98.30
12233;DHT22;6179;51.748;8.728;2024-01-16T18:33:57;-1.10;98.30
12233;DHT22;6179;51.748;8.728;2024-01-16T18:39:58;-1.10;98.30
12233;DHT22;6179;51.748;8.728;2024-01-16T18:45:58;-1.00;98.30
12233;DHT22;6179;51.748;8.728;2024-01-16T18:51:59;-0.80;98.30
12233;DHT22;6179;51.748;8.728;2024-01-16T18:58:01;-1.10;98.30
12233;DHT22;6179;51.748;8.728;2024-01-16T19:04:04;-1.20;98.30
12233;DHT22;6179;51.748;8.728;2024-01-16T19:10:05;-1.40;98.30
12233;DHT22;6179;51.748;8.728;2024-01-16T19:16:06;-1.00;98.30
12233;DHT22;6179;51.748;8.728;2024-01-16T19:22:07;-1.10;98.30
12233;DHT22;6179;51.748;8.728;2024-01-16T19:28:09;-1.10;98.30
12233;DHT22;6179;51.748;8.728;2024-01-16T19:34:10;-1.30;98.30
12233;DHT22;6179;51.748;8.728;2024-01-16T19:40:12;-1.30;98.30
12233;DHT22;6179;51.748;8.728;2024-01-16T19:46:16;-1.10;98.30
12233;DHT22;6179;51.748;8.728;2024-01-16T19:52:17;-0.90;97.20
12233;DHT22;6179;51.748;8.728;2024-01-16T19:58:19;-1.00;97.80
12233;DHT22;6179;51.748;8.728;2024-01-16T20:04:20;-1.30;98.30
12233;DHT22;6179;51.748;8.728;2024-01-16T20:10:20;-1.10;97.70
12233;DHT22;6179;51.748;8.728;2024-01-16T20:16:24;-1.40;98.00
12233;DHT22;6179;51.748;8.728;2024-01-16T20:22:28;-1.50;98.30
12233;DHT22;6179;51.748;8.728;2024-01-16T20:28:30;-1.40;98.30
12233;DHT22;6179;51.748;8.728;2024-01-16T20:34:31;-1.60;98.30
12233;DHT22;6179;51.748;8.728;2024-01-16T20:40:33;-1.60;98.30
12233;DHT22;6179;51.748;8.728;2024-01-16T20:46:34;-1.10;97.20
12233;DHT22;6179;51.748;8.728;2024-01-16T20:52:35;-1.50;97.90
12233;DHT22;6179;51.748;8.728;2024-01-16T20:58:36;-1.40;97.80
12233;DHT22;6179;51.748;8.728;2024-01-16T21:04:38;-1.60;97.80
12233;DHT22;6179;51.748;8.728;2024-01-16T21:10:40;-1.50;97.60
12233;DHT22;6179;51.748;8.728;2024-01-16T21:16:40;-1.40;96.90
12233;DHT22;6179;51.748;8.728;2024-01-16T21:22:42;-1.00;95.20
12233;DHT22;6179;51.748;8.728;2024-01-16T21:28:43;-1.20;96.00
12233;DHT22;6179;51.748;8.728;2024-01-16T21:34:45;-1.30;96.10
12233;DHT22;6179;51.748;8.728;2024-01-16T21:40:47;-1.20;95.30
12233;DHT22;6179;51.748;8.728;2024-01-16T21:46:48;-1.00;94.40
12233;DHT22;6179;51.748;8.728;2024-01-16T21:52:49;-1.60;97.10
12233;DHT22;6179;51.748;8.728;2024-01-16T21:58:50;-1.40;96.10
12233;DHT22;6179;51.748;8.728;2024-01-16T22:04:50;-1.30;95.40
12233;DHT22;6179;51.748;8.728;2024-01-16T22:10:51;-1.30;95.40
12233;DHT22;6179;51.748;8.728;2024-01-16T22:16:53;-1.20;95.00
12233;DHT22;6179;51.748;8.728;2024-01-16T22:22:54;-1.20;94.50
12233;DHT22;6179;51.748;8.728;2024-01-16T22:28:54;-1.40;95.40
12233;DHT22;6179;51.748;8.728;2024-01-16T22:34:55;-1.30;95.20
12233;DHT22;6179;51.748;8.728;2024-01-16T22:40:56;-1.40;94.70
12233;DHT22;6179;51.748;8.728;2024-01-16T22:46:57;-1.80;96.60
12233;DHT22;6179;51.748;8.728;2024-01-16T22:52:59;-1.50;95.50
12233;DHT22;6179;51.748;8.728;2024-01-16T22:59:00;-1.80;95.60
12233;DHT22;6179;51.748;8.728;2024-01-16T23:05:00;-1.90;96.30
12233;DHT22;6179;51.748;8.728;2024-01-16T23:11:02;-1.70;95.70
12233;DHT22;6179;51.748;8.728;2024-01-16T23:17:04;-1.80;95.50
12233;DHT22;6179;51.748;8.728;2024-01-16T23:23:05;-1.80;96.10
12233;DHT22;6179;51.748;8.728;2024-01-16T23:29:12;-2.00;96.00
12233;DHT22;6179;51.748;8.728;2024-01-16T23:35:12;-1.90;96.00
12233;DHT22;6179;51.748;8.728;2024-01-16T23:41:13;-1.90;96.50
12233;DHT22;6179;51.748;8.728;2024-01-16T23:47:14;-1.80;95.40
12233;DHT22;6179;51.748;8.728;2024-01-16T23:53:16;-1.90;96.10
12233;DHT22;6179;51.748;8.728;2024-01-16T23:59:16;-2.10;96.80
